Time;durP1;ratioP1;P1;durP2;ratioP2;P2;SDS_P1;SDS_P2;PMS_P1;PMS_P2;Temp;Humidity;BMP_temperature;BMP_pressure;BME280_temperature;BME280_humidity;BME280_pressure;Samples;Min_cycle;Max_cycle;Signal;HPM_P1;HPM_P2
2023/08/24 00:00:44;;;;;;;;;;;16.00;96.50;;;;;;5031094;28;19920;-72
2023/08/24 00:03:11;;;;;;;;;;;16.20;95.60;;;;;;5032498;28;19913;-72
2023/08/24 00:05:38;;;;;;;;;;;16.40;95.70;;;;;;5032489;28;19917;-70
2023/08/24 00:08:05;;;;;;;;;;;16.50;95.40;;;;;;5032529;28;20008;-71
2023/08/24 00:10:32;;;;;;;;;;;16.70;95.00;;;;;;5012846;28;20004;-71
2023/08/24 00:12:59;;;;;;;;;;;16.70;94.70;;;;;;5012849;28;19913;-72
2023/08/24 00:15:25;;;;;;;;;;;16.70;95.00;;;;;;5015334;28;19920;-70
2023/08/24 00:17:52;;;;;;;;;;;16.90;94.70;;;;;;5033338;28;19910;-71
2023/08/24 00:20:19;;;;;;;;;;;17.10;94.30;;;;;;5036460;28;19964;-70
2023/08/24 00:22:46;;;;;;;;;;;17.30;94.30;;;;;;5035006;28;19909;-70
2023/08/24 00:25:13;;;;;;;;;;;17.40;93.70;;;;;;5035382;28;19916;-71
2023/08/24 00:27:40;;;;;;;;;;;17.60;93.70;;;;;;5035992;28;20000;-70
2023/08/24 00:30:07;;;;;;;;;;;17.70;93.70;;;;;;5042319;28;19916;-71
2023/08/24 00:32:35;;;;;;;;;;;17.90;93.70;;;;;;5051959;28;20055;-70
2023/08/24 00:35:10;;;;;;;;;;;18.10;91.90;;;;;;5035798;28;19910;-71
2023/08/24 00:37:37;;;;;;;;;;;18.20;91.60;;;;;;5036014;28;19916;-71
2023/08/24 00:40:08;;;;;;;;;;;18.30;92.00;;;;;;5035887;28;19914;-71
2023/08/24 00:42:45;;;;;;;;;;;18.60;91.80;;;;;;5035679;28;19916;-70
2023/08/24 00:45:12;;;;;;;;;;;18.70;91.40;;;;;;5035522;28;19921;-71
2023/08/24 00:47:48;;;;;;;;;;;18.90;91.60;;;;;;5035742;28;19913;-70
2023/08/24 00:50:16;;;;;;;;;;;19.10;90.50;;;;;;5035466;28;20366;-71
2023/08/24 00:52:43;;;;;;;;;;;19.10;90.70;;;;;;5035567;28;19909;-70
2023/08/24 00:55:10;;;;;;;;;;;19.30;87.40;;;;;;5034733;28;20007;-71
2023/08/24 00:57:37;;;;;;;;;;;19.60;85.60;;;;;;5035691;28;19963;-71
2023/08/24 01:00:08;;;;;;;;;;;19.90;84.70;;;;;;5035267;28;20372;-71
2023/08/24 01:02:35;;;;;;;;;;;20.20;84.70;;;;;;5035356;28;20016;-71
2023/08/24 01:05:01;;;;;;;;;;;20.40;85.40;;;;;;5034701;28;19913;-72
2023/08/24 01:07:28;;;;;;;;;;;20.50;84.90;;;;;;5034899;28;19936;-71
2023/08/24 01:09:55;;;;;;;;;;;20.60;85.10;;;;;;5035537;28;20358;-71
2023/08/24 01:12:41;;;;;;;;;;;20.80;83.10;;;;;;5035361;28;19909;-71
2023/08/24 01:15:08;;;;;;;;;;;20.80;82.20;;;;;;5024831;28;19920;-72
2023/08/24 01:17:36;;;;;;;;;;;21.00;82.40;;;;;;5034873;28;19916;-71
2023/08/24 01:20:05;;;;;;;;;;;21.10;79.50;;;;;;5034848;28;20448;-71
2023/08/24 01:22:50;;;;;;;;;;;21.50;77.50;;;;;;5033939;28;19909;-71
2023/08/24 01:25:23;;;;;;;;;;;21.50;78.10;;;;;;5034752;28;19909;-72
2023/08/24 01:27:50;;;;;;;;;;;21.50;76.70;;;;;;5035119;28;19949;-71
2023/08/24 01:30:17;;;;;;;;;;;21.80;74.60;;;;;;5056692;28;19961;-71
2023/08/24 01:32:44;;;;;;;;;;;22.00;76.20;;;;;;5054760;28;19952;-71
2023/08/24 01:35:11;;;;;;;;;;;22.20;72.60;;;;;;5036224;28;20321;-71
2023/08/24 01:37:38;;;;;;;;;;;22.40;72.70;;;;;;5034951;28;19909;-71
2023/08/24 01:40:17;;;;;;;;;;;23.00;71.60;;;;;;5033428;28;19913;-71
2023/08/24 01:42:55;;;;;;;;;;;22.80;69.10;;;;;;5034674;28;20317;-71
2023/08/24 01:45:23;;;;;;;;;;;22.50;72.20;;;;;;5034588;28;19916;-72
2023/08/24 01:47:50;;;;;;;;;;;22.10;69.90;;;;;;5034702;28;19920;-71
2023/08/24 01:50:17;;;;;;;;;;;21.80;71.50;;;;;;5034438;28;19909;-71
2023/08/24 01:52:44;;;;;;;;;;;21.70;71.10;;;;;;5034415;28;20376;-71
2023/08/24 01:55:11;;;;;;;;;;;21.60;68.70;;;;;;5033515;28;19913;-72
2023/08/24 01:57:38;;;;;;;;;;;21.30;70.90;;;;;;5034248;28;19929;-72
2023/08/24 02:00:09;;;;;;;;;;;21.10;70.80;;;;;;5034702;28;19928;-72
2023/08/24 02:02:36;;;;;;;;;;;20.90;71.50;;;;;;5049504;28;19964;-72
2023/08/24 02:05:03;;;;;;;;;;;21.20;71.00;;;;;;5033593;28;20420;-72
2023/08/24 02:07:29;;;;;;;;;;;21.40;68.20;;;;;;5033904;28;19955;-72
2023/08/24 02:09:56;;;;;;;;;;;21.40;67.70;;;;;;5032673;28;19910;-72
2023/08/24 02:12:23;;;;;;;;;;;21.70;68.90;;;;;;5034193;28;19909;-70
2023/08/24 02:14:49;;;;;;;;;;;21.90;69.70;;;;;;5033315;28;19913;-72
2023/08/24 02:17:16;;;;;;;;;;;21.70;70.00;;;;;;5034505;28;19919;-72
2023/08/24 02:19:43;;;;;;;;;;;21.10;71.50;;;;;;5033991;28;19971;-72
2023/08/24 02:22:09;;;;;;;;;;;20.80;73.10;;;;;;5033966;28;19944;-72
2023/08/24 02:24:36;;;;;;;;;;;20.50;73.10;;;;;;5032949;28;19913;-72
2023/08/24 02:27:03;;;;;;;;;;;20.50;68.60;;;;;;5033992;28;19909;-72
2023/08/24 02:29:30;;;;;;;;;;;20.70;68.30;;;;;;5034333;28;20255;-72
2023/08/24 02:31:56;;;;;;;;;;;20.50;69.80;;;;;;5046284;28;19959;-72
2023/08/24 02:34:23;;;;;;;;;;;20.50;72.50;;;;;;5048726;28;20007;-72
2023/08/24 02:36:50;;;;;;;;;;;20.50;69.30;;;;;;5033595;28;19909;-72
2023/08/24 02:39:16;;;;;;;;;;;20.50;71.30;;;;;;5033444;28;20277;-72
2023/08/24 02:41:43;;;;;;;;;;;21.00;71.20;;;;;;5031632;28;19917;-72
2023/08/24 02:44:10;;;;;;;;;;;21.60;67.10;;;;;;5033179;28;19987;-72
2023/08/24 02:46:36;;;;;;;;;;;21.40;65.60;;;;;;5033462;28;19909;-72
2023/08/24 02:49:03;;;;;;;;;;;21.40;64.30;;;;;;5033209;28;19971;-72
2023/08/24 02:51:31;;;;;;;;;;;21.00;67.80;;;;;;5033256;28;19910;-71
2023/08/24 02:53:57;;;;;;;;;;;21.60;64.60;;;;;;5033103;28;20438;-72
2023/08/24 02:56:24;;;;;;;;;;;21.60;65.10;;;;;;5033708;28;20377;-72
2023/08/24 02:58:51;;;;;;;;;;;22.40;66.00;;;;;;5033397;28;20312;-72
2023/08/24 03:01:18;;;;;;;;;;;22.80;62.00;;;;;;5033476;28;19917;-73
2023/08/24 03:03:44;;;;;;;;;;;22.40;60.60;;;;;;5033483;28;19909;-70
2023/08/24 03:06:11;;;;;;;;;;;22.20;62.40;;;;;;5032784;28;19913;-71
2023/08/24 03:08:38;;;;;;;;;;;21.70;62.70;;;;;;5033342;28;19913;-71
2023/08/24 03:11:04;;;;;;;;;;;22.50;62.00;;;;;;5033366;28;19963;-71
2023/08/24 03:13:31;;;;;;;;;;;22.90;61.20;;;;;;5033029;28;20270;-71
2023/08/24 03:16:03;;;;;;;;;;;23.20;56.30;;;;;;5033132;28;19920;-71
2023/08/24 03:18:30;;;;;;;;;;;23.30;55.80;;;;;;5032887;28;19917;-71
2023/08/24 03:20:56;;;;;;;;;;;23.40;55.70;;;;;;5032742;28;19924;-71
2023/08/24 03:23:23;;;;;;;;;;;23.60;58.80;;;;;;5032731;28;19916;-72
2023/08/24 03:25:50;;;;;;;;;;;23.80;56.40;;;;;;5032895;28;20400;-71
2023/08/24 03:28:16;;;;;;;;;;;24.10;56.20;;;;;;5032964;28;20275;-71
2023/08/24 03:30:48;;;;;;;;;;;24.20;54.10;;;;;;5043703;28;20366;-71
2023/08/24 03:33:14;;;;;;;;;;;24.40;53.90;;;;;;5041898;28;19909;-72
2023/08/24 03:35:41;;;;;;;;;;;24.50;54.10;;;;;;5032946;28;19909;-71
2023/08/24 03:38:08;;;;;;;;;;;24.70;51.50;;;;;;5032941;28;19909;-71
2023/08/24 03:40:34;;;;;;;;;;;24.20;51.30;;;;;;5032514;28;19964;-71
2023/08/24 03:43:02;;;;;;;;;;;23.60;52.70;;;;;;5032665;28;19921;-71
2023/08/24 03:45:29;;;;;;;;;;;23.60;51.20;;;;;;5031860;28;19936;-71
2023/08/24 03:47:56;;;;;;;;;;;23.20;53.10;;;;;;5032323;28;19913;-71
2023/08/24 03:50:23;;;;;;;;;;;23.10;52.60;;;;;;5032577;28;19909;-71
2023/08/24 03:52:54;;;;;;;;;;;23.20;54.30;;;;;;5035095;28;19909;-71
2023/08/24 03:55:21;;;;;;;;;;;23.00;55.60;;;;;;5035871;28;19916;-71
2023/08/24 03:57:48;;;;;;;;;;;23.20;56.90;;;;;;5036521;28;19915;-71
2023/08/24 04:00:14;;;;;;;;;;;23.40;54.20;;;;;;5036542;28;20024;-71
2023/08/24 04:02:41;;;;;;;;;;;23.80;51.00;;;;;;5036320;28;19913;-71
2023/08/24 04:05:08;;;;;;;;;;;24.00;52.20;;;;;;5036010;28;20015;-71
2023/08/24 04:07:39;;;;;;;;;;;23.60;53.70;;;;;;5036253;28;19916;-71
2023/08/24 04:10:06;;;;;;;;;;;23.40;53.80;;;;;;5036512;28;19948;-71
2023/08/24 04:12:33;;;;;;;;;;;22.70;56.10;;;;;;5036244;28;19909;-71
2023/08/24 04:15:00;;;;;;;;;;;22.30;56.10;;;;;;5035210;28;20322;-72
2023/08/24 04:17:26;;;;;;;;;;;21.70;58.00;;;;;;5036065;28;20359;-72
2023/08/24 04:19:53;;;;;;;;;;;21.40;59.20;;;;;;5036191;28;20374;-72
2023/08/24 04:22:20;;;;;;;;;;;21.60;60.10;;;;;;5036233;28;19913;-72
2023/08/24 04:24:46;;;;;;;;;;;21.80;59.10;;;;;;5035920;28;19916;-72
2023/08/24 04:27:13;;;;;;;;;;;21.50;58.70;;;;;;5036439;28;19916;-72
2023/08/24 04:29:40;;;;;;;;;;;21.50;60.20;;;;;;5037982;28;19995;-71
2023/08/24 04:32:07;;;;;;;;;;;21.50;60.90;;;;;;5038665;28;19909;-71
2023/08/24 04:34:33;;;;;;;;;;;21.50;61.80;;;;;;5035943;28;20041;-73
2023/08/24 04:37:01;;;;;;;;;;;21.70;61.40;;;;;;5035914;28;19909;-71
2023/08/24 04:39:31;;;;;;;;;;;21.80;60.10;;;;;;5035493;28;19909;-71
2023/08/24 04:41:58;;;;;;;;;;;21.60;59.80;;;;;;5035631;28;20401;-71
2023/08/24 04:44:24;;;;;;;;;;;21.60;59.60;;;;;;5035400;28;19925;-73
2023/08/24 04:46:51;;;;;;;;;;;22.00;58.90;;;;;;5035854;28;19909;-72
2023/08/24 04:49:17;;;;;;;;;;;22.20;58.00;;;;;;5034362;28;19916;-72
2023/08/24 04:51:44;;;;;;;;;;;22.20;58.80;;;;;;5035680;28;19917;-72
2023/08/24 04:54:11;;;;;;;;;;;21.80;59.00;;;;;;5034113;28;19909;-72
2023/08/24 04:56:37;;;;;;;;;;;21.80;57.80;;;;;;5035239;28;19955;-73
2023/08/24 04:59:04;;;;;;;;;;;21.60;57.40;;;;;;5035767;28;19916;-72
2023/08/24 05:01:33;;;;;;;;;;;21.60;58.20;;;;;;5034058;28;19917;-72
2023/08/24 05:04:00;;;;;;;;;;;21.70;57.80;;;;;;5034271;28;19913;-73
2023/08/24 05:06:27;;;;;;;;;;;21.80;57.50;;;;;;5034962;28;20427;-72
2023/08/24 05:08:53;;;;;;;;;;;21.80;57.10;;;;;;5035680;28;19913;-71
2023/08/24 05:11:22;;;;;;;;;;;21.90;56.50;;;;;;5034986;28;19917;-72
2023/08/24 05:13:49;;;;;;;;;;;22.00;57.60;;;;;;5034963;28;19920;-72
2023/08/24 05:16:15;;;;;;;;;;;22.10;57.10;;;;;;5035116;28;19921;-72
2023/08/24 05:18:42;;;;;;;;;;;22.10;56.90;;;;;;5035180;28;19909;-72
2023/08/24 05:21:09;;;;;;;;;;;21.80;56.10;;;;;;5034932;28;20293;-71
2023/08/24 05:23:36;;;;;;;;;;;21.60;56.10;;;;;;5034799;28;19952;-72
2023/08/24 05:26:03;;;;;;;;;;;21.50;56.60;;;;;;5033754;28;20453;-72
2023/08/24 05:28:30;;;;;;;;;;;21.40;56.90;;;;;;5050195;28;19916;-72
2023/08/24 05:30:57;;;;;;;;;;;21.40;57.50;;;;;;5048033;28;19913;-72
2023/08/24 05:33:24;;;;;;;;;;;21.50;56.60;;;;;;5034623;28;20282;-72
2023/08/24 05:35:51;;;;;;;;;;;21.50;56.00;;;;;;5034713;28;19909;-72
2023/08/24 05:38:18;;;;;;;;;;;21.80;57.70;;;;;;5032885;28;19924;-71
2023/08/24 05:40:49;;;;;;;;;;;21.80;56.20;;;;;;5034827;28;20366;-73
2023/08/24 05:43:15;;;;;;;;;;;21.60;58.40;;;;;;5034204;28;20020;-72
2023/08/24 05:45:44;;;;;;;;;;;21.70;58.90;;;;;;5033776;28;20420;-73
2023/08/24 05:48:13;;;;;;;;;;;21.80;58.30;;;;;;5034189;28;19961;-73
2023/08/24 05:50:47;;;;;;;;;;;21.80;58.50;;;;;;5034326;28;19917;-72
2023/08/24 05:53:13;;;;;;;;;;;21.80;58.20;;;;;;5034317;28;20316;-72
2023/08/24 05:55:40;;;;;;;;;;;21.70;58.70;;;;;;5028544;28;19910;-72
2023/08/24 05:58:07;;;;;;;;;;;21.70;58.80;;;;;;5014562;28;19953;-73
2023/08/24 06:00:34;;;;;;;;;;;21.70;58.80;;;;;;5014454;28;19917;-72
2023/08/24 06:03:01;;;;;;;;;;;21.70;59.00;;;;;;5022524;28;19920;-72
2023/08/24 06:05:28;;;;;;;;;;;21.60;58.10;;;;;;5033770;28;19959;-72
2023/08/24 06:07:54;;;;;;;;;;;21.50;58.80;;;;;;5034278;28;19984;-72
2023/08/24 06:10:24;;;;;;;;;;;21.30;59.20;;;;;;5049340;28;19916;-72
2023/08/24 06:12:50;;;;;;;;;;;21.30;59.60;;;;;;5032697;28;20363;-72
2023/08/24 06:15:19;;;;;;;;;;;21.20;60.10;;;;;;5033293;28;20347;-73
2023/08/24 06:17:47;;;;;;;;;;;21.20;59.60;;;;;;5033810;28;20007;-72
2023/08/24 06:20:14;;;;;;;;;;;21.20;60.00;;;;;;5033963;28;19947;-72
2023/08/24 06:22:41;;;;;;;;;;;21.10;60.50;;;;;;5033744;28;19984;-72
2023/08/24 06:25:09;;;;;;;;;;;21.00;60.40;;;;;;5033116;28;19909;-72
2023/08/24 06:27:36;;;;;;;;;;;20.80;60.30;;;;;;5033831;28;20420;-73
2023/08/24 06:30:03;;;;;;;;;;;20.80;60.80;;;;;;5033938;28;19916;-73
2023/08/24 06:32:30;;;;;;;;;;;20.60;61.40;;;;;;5033473;28;19937;-71
2023/08/24 06:34:57;;;;;;;;;;;20.70;61.10;;;;;;5033059;28;19909;-71
2023/08/24 06:37:23;;;;;;;;;;;20.50;61.30;;;;;;5033657;28;19913;-72
2023/08/24 06:39:50;;;;;;;;;;;20.20;62.10;;;;;;5033437;28;19944;-72
2023/08/24 06:42:17;;;;;;;;;;;20.00;62.70;;;;;;5033462;28;20263;-72
2023/08/24 06:44:44;;;;;;;;;;;19.80;63.10;;;;;;5032903;28;19928;-72
2023/08/24 06:47:11;;;;;;;;;;;19.70;63.80;;;;;;5032925;28;20343;-72
2023/08/24 06:49:37;;;;;;;;;;;19.60;64.20;;;;;;5033555;28;19944;-72
2023/08/24 06:52:04;;;;;;;;;;;19.50;64.40;;;;;;5033344;28;19909;-72
2023/08/24 06:54:31;;;;;;;;;;;19.30;65.20;;;;;;5032856;28;19913;-72
2023/08/24 06:56:58;;;;;;;;;;;19.20;65.20;;;;;;5032937;28;19909;-72
2023/08/24 06:59:24;;;;;;;;;;;19.10;65.20;;;;;;5033030;28;19909;-72
2023/08/24 07:01:52;;;;;;;;;;;19.10;65.80;;;;;;5033333;28;19916;-73
2023/08/24 07:04:18;;;;;;;;;;;18.80;65.40;;;;;;5032560;28;19936;-72
2023/08/24 07:06:46;;;;;;;;;;;18.80;65.70;;;;;;5033250;28;19909;-72
2023/08/24 07:09:12;;;;;;;;;;;18.60;66.50;;;;;;5033082;28;19913;-72
2023/08/24 07:11:39;;;;;;;;;;;18.60;66.30;;;;;;5031612;28;19913;-72
2023/08/24 07:14:06;;;;;;;;;;;18.50;66.00;;;;;;5032702;28;19916;-72
2023/08/24 07:16:32;;;;;;;;;;;18.50;66.20;;;;;;5032927;28;19913;-72
2023/08/24 07:18:59;;;;;;;;;;;18.40;66.20;;;;;;5031737;28;20330;-72
2023/08/24 07:21:26;;;;;;;;;;;18.30;66.70;;;;;;5032684;28;19921;-71
2023/08/24 07:23:53;;;;;;;;;;;18.10;67.10;;;;;;5033085;28;19909;-71
2023/08/24 07:26:20;;;;;;;;;;;18.10;67.60;;;;;;5032566;28;20397;-72
2023/08/24 07:28:46;;;;;;;;;;;18.10;66.70;;;;;;5032597;28;19916;-72
2023/08/24 07:31:13;;;;;;;;;;;18.00;67.10;;;;;;5040202;28;19920;-72
2023/08/24 07:33:41;;;;;;;;;;;17.80;67.10;;;;;;5032652;28;19944;-72
2023/08/24 07:36:07;;;;;;;;;;;17.70;67.20;;;;;;5032784;28;19924;-72
2023/08/24 07:38:34;;;;;;;;;;;17.70;67.40;;;;;;5032375;28;19917;-72
2023/08/24 07:41:01;;;;;;;;;;;17.60;67.40;;;;;;5032650;28;20381;-72
2023/08/24 07:43:27;;;;;;;;;;;17.60;66.70;;;;;;5032240;28;19921;-72
2023/08/24 07:45:54;;;;;;;;;;;17.40;67.40;;;;;;5032984;28;19971;-72
2023/08/24 07:48:21;;;;;;;;;;;17.40;67.70;;;;;;5032550;28;19952;-73
2023/08/24 07:50:48;;;;;;;;;;;17.20;68.20;;;;;;5032640;28;19909;-72
2023/08/24 07:53:14;;;;;;;;;;;17.30;68.10;;;;;;5032628;28;19913;-72
2023/08/24 07:55:42;;;;;;;;;;;17.20;68.10;;;;;;5032136;28;19949;-73
2023/08/24 07:58:09;;;;;;;;;;;17.10;68.50;;;;;;5031449;28;20381;-72
2023/08/24 08:00:36;;;;;;;;;;;17.00;69.50;;;;;;5032670;28;19924;-72
2023/08/24 08:03:02;;;;;;;;;;;17.00;69.10;;;;;;5032566;28;19909;-72
2023/08/24 08:05:29;;;;;;;;;;;16.90;69.20;;;;;;5031524;28;19920;-72
2023/08/24 08:07:56;;;;;;;;;;;16.90;69.80;;;;;;5032500;28;19945;-73
2023/08/24 08:10:22;;;;;;;;;;;16.90;69.80;;;;;;5032274;28;20008;-73
2023/08/24 08:12:49;;;;;;;;;;;16.70;70.20;;;;;;5032453;28;19909;-72
2023/08/24 08:15:16;;;;;;;;;;;16.70;70.40;;;;;;5031718;28;19914;-72
2023/08/24 08:17:42;;;;;;;;;;;16.70;70.70;;;;;;5032362;28;20394;-72
2023/08/24 08:20:10;;;;;;;;;;;16.60;71.10;;;;;;5032408;28;20019;-72
2023/08/24 08:22:38;;;;;;;;;;;16.60;71.10;;;;;;5032338;28;19917;-72
2023/08/24 08:25:06;;;;;;;;;;;16.60;71.40;;;;;;5030386;28;19967;-72
2023/08/24 08:27:33;;;;;;;;;;;16.50;71.50;;;;;;5032437;28;19909;-72
2023/08/24 08:29:59;;;;;;;;;;;16.50;72.00;;;;;;5039658;28;20312;-71
2023/08/24 08:32:27;;;;;;;;;;;16.40;72.10;;;;;;5052251;28;19909;-71
2023/08/24 08:35:00;;;;;;;;;;;16.30;72.60;;;;;;5051601;28;19913;-71
2023/08/24 08:37:27;;;;;;;;;;;16.30;72.80;;;;;;5052053;28;19921;-72
2023/08/24 08:39:54;;;;;;;;;;;16.20;73.30;;;;;;5038332;28;19917;-72
2023/08/24 08:42:21;;;;;;;;;;;16.10;73.80;;;;;;5036282;28;19913;-71
2023/08/24 08:44:49;;;;;;;;;;;16.10;73.80;;;;;;5026765;28;19932;-72
2023/08/24 08:47:17;;;;;;;;;;;16.00;74.50;;;;;;5033871;28;19913;-71
2023/08/24 08:49:45;;;;;;;;;;;16.00;74.70;;;;;;5035779;28;19916;-71
2023/08/24 08:52:12;;;;;;;;;;;16.00;75.30;;;;;;5034138;28;20358;-72
2023/08/24 08:54:40;;;;;;;;;;;15.90;75.10;;;;;;5035559;28;19949;-72
2023/08/24 08:57:07;;;;;;;;;;;15.80;75.80;;;;;;5035266;28;19909;-72
2023/08/24 08:59:34;;;;;;;;;;;15.70;76.40;;;;;;5035444;28;19956;-72
2023/08/24 09:02:01;;;;;;;;;;;15.60;76.50;;;;;;5035375;28;19913;-72
2023/08/24 09:04:32;;;;;;;;;;;15.50;76.90;;;;;;5033939;28;19913;-72
2023/08/24 09:07:03;;;;;;;;;;;15.50;77.30;;;;;;5035135;28;20323;-71
2023/08/24 09:09:30;;;;;;;;;;;15.40;77.60;;;;;;5034737;28;20055;-71
2023/08/24 09:11:57;;;;;;;;;;;15.30;78.20;;;;;;5035131;28;19963;-71
2023/08/24 09:14:24;;;;;;;;;;;15.20;78.50;;;;;;5033874;28;19929;-72
2023/08/24 09:16:50;;;;;;;;;;;15.10;78.90;;;;;;5034498;28;19916;-72
2023/08/24 09:19:17;;;;;;;;;;;15.10;80.00;;;;;;5033188;28;19921;-72
2023/08/24 09:21:44;;;;;;;;;;;15.00;79.80;;;;;;5034603;28;19972;-73
2023/08/24 09:24:11;;;;;;;;;;;15.00;79.80;;;;;;5034535;28;19913;-72
2023/08/24 09:26:44;;;;;;;;;;;15.00;79.90;;;;;;5034545;28;20024;-71
2023/08/24 09:29:14;;;;;;;;;;;14.90;80.70;;;;;;5041663;28;19912;-72
2023/08/24 09:31:43;;;;;;;;;;;14.90;81.20;;;;;;5034091;28;19916;-72
2023/08/24 09:34:11;;;;;;;;;;;14.80;81.60;;;;;;5034595;28;19919;-73
2023/08/24 09:36:39;;;;;;;;;;;14.80;82.40;;;;;;5049252;28;19910;-71
2023/08/24 09:39:06;;;;;;;;;;;14.80;82.40;;;;;;5034226;28;19921;-72
2023/08/24 09:41:39;;;;;;;;;;;14.80;82.10;;;;;;5033929;28;20362;-72
2023/08/24 09:44:07;;;;;;;;;;;14.70;82.80;;;;;;5033953;28;19951;-72
2023/08/24 09:46:35;;;;;;;;;;;14.70;83.10;;;;;;5033998;28;19919;-73
2023/08/24 09:49:05;;;;;;;;;;;14.60;83.40;;;;;;5034092;28;19909;-72
2023/08/24 09:51:32;;;;;;;;;;;14.60;83.70;;;;;;5033613;28;19960;-72
2023/08/24 09:53:59;;;;;;;;;;;14.50;83.70;;;;;;5033522;28;19913;-72
2023/08/24 09:56:26;;;;;;;;;;;14.50;84.30;;;;;;5033800;28;19951;-72
2023/08/24 09:58:54;;;;;;;;;;;14.40;84.90;;;;;;5034225;28;19963;-72
2023/08/24 10:01:22;;;;;;;;;;;14.20;85.40;;;;;;5033969;28;19979;-72
2023/08/24 10:03:51;;;;;;;;;;;14.20;85.90;;;;;;5033085;28;20409;-72
2023/08/24 10:06:20;;;;;;;;;;;14.00;86.40;;;;;;5033569;28;19915;-72
2023/08/24 10:08:53;;;;;;;;;;;13.90;87.20;;;;;;5033595;28;20401;-72
2023/08/24 10:11:23;;;;;;;;;;;13.90;87.10;;;;;;5033129;28;20538;-71
2023/08/24 10:13:49;;;;;;;;;;;13.80;87.60;;;;;;5033519;28;19944;-71
2023/08/24 10:16:18;;;;;;;;;;;13.70;88.00;;;;;;5032431;28;19996;-72
2023/08/24 10:18:45;;;;;;;;;;;13.70;88.80;;;;;;5033494;28;19913;-71
2023/08/24 10:21:11;;;;;;;;;;;13.70;89.30;;;;;;5033061;28;19999;-71
2023/08/24 10:23:39;;;;;;;;;;;13.60;89.50;;;;;;5032907;28;20291;-72
2023/08/24 10:26:07;;;;;;;;;;;13.50;90.30;;;;;;5033420;28;19914;-72
2023/08/24 10:28:34;;;;;;;;;;;13.50;90.10;;;;;;5036826;28;19912;-72
2023/08/24 10:31:01;;;;;;;;;;;13.40;90.20;;;;;;5053195;28;19920;-72
2023/08/24 10:33:29;;;;;;;;;;;13.40;90.40;;;;;;5052941;28;19916;-73
2023/08/24 10:35:56;;;;;;;;;;;13.30;90.50;;;;;;5068200;28;20286;-72
2023/08/24 10:38:24;;;;;;;;;;;13.30;90.80;;;;;;5040944;28;19909;-72
2023/08/24 10:40:51;;;;;;;;;;;13.20;90.90;;;;;;5048329;28;20290;-72
2023/08/24 10:43:18;;;;;;;;;;;13.10;91.20;;;;;;5032803;28;19921;-72
2023/08/24 10:45:58;;;;;;;;;;;13.00;91.30;;;;;;5032628;28;20004;-72
2023/08/24 10:48:25;;;;;;;;;;;13.00;91.50;;;;;;5032907;28;19975;-73
2023/08/24 10:51:10;;;;;;;;;;;13.00;91.70;;;;;;5047915;28;20282;-72
2023/08/24 10:53:55;;;;;;;;;;;13.00;91.90;;;;;;5032248;28;19909;-71
2023/08/24 10:56:29;;;;;;;;;;;12.90;91.90;;;;;;5032569;28;19910;-71
2023/08/24 10:59:14;;;;;;;;;;;12.90;91.90;;;;;;5032762;28;19920;-71
2023/08/24 11:01:53;;;;;;;;;;;12.90;91.90;;;;;;5031843;28;20039;-71
2023/08/24 11:04:20;;;;;;;;;;;12.80;92.10;;;;;;5032498;28;19909;-71
2023/08/24 11:06:54;;;;;;;;;;;12.90;92.30;;;;;;5032613;28;19913;-71
2023/08/24 11:09:20;;;;;;;;;;;12.80;92.20;;;;;;5032393;28;19913;-71
2023/08/24 11:11:57;;;;;;;;;;;12.70;92.40;;;;;;5032524;28;20323;-70
2023/08/24 11:14:28;;;;;;;;;;;12.80;92.50;;;;;;5032663;28;19953;-71
2023/08/24 11:16:57;;;;;;;;;;;12.80;92.40;;;;;;5048037;28;19999;-71
2023/08/24 11:19:23;;;;;;;;;;;12.70;92.00;;;;;;5032001;28;19982;-71
2023/08/24 11:21:51;;;;;;;;;;;12.50;92.40;;;;;;5032512;28;19921;-71
2023/08/24 11:24:18;;;;;;;;;;;12.40;92.50;;;;;;5032506;28;19916;-71
2023/08/24 11:26:46;;;;;;;;;;;12.20;92.70;;;;;;5033177;28;19909;-71
2023/08/24 11:29:13;;;;;;;;;;;12.10;92.90;;;;;;5040212;28;19916;-71
2023/08/24 11:31:40;;;;;;;;;;;12.10;93.20;;;;;;5048122;28;19996;-71
2023/08/24 11:34:09;;;;;;;;;;;12.00;93.30;;;;;;5032981;28;19920;-71
2023/08/24 11:36:48;;;;;;;;;;;11.90;93.30;;;;;;5032357;28;20371;-71
2023/08/24 11:39:16;;;;;;;;;;;11.90;93.40;;;;;;5048231;28;19916;-70
2023/08/24 11:41:44;;;;;;;;;;;11.80;93.30;;;;;;5032902;28;19941;-71
2023/08/24 11:44:11;;;;;;;;;;;11.80;94.00;;;;;;5032572;28;20015;-71
2023/08/24 11:46:39;;;;;;;;;;;11.90;93.80;;;;;;5027572;28;19928;-71
2023/08/24 11:49:06;;;;;;;;;;;11.70;93.70;;;;;;5013796;28;19913;-72
2023/08/24 11:51:34;;;;;;;;;;;11.70;93.80;;;;;;5032635;28;20330;-71
2023/08/24 11:54:01;;;;;;;;;;;11.70;94.00;;;;;;5032037;28;19917;-72
2023/08/24 11:56:28;;;;;;;;;;;11.60;94.10;;;;;;5032160;28;20290;-71
2023/08/24 11:58:54;;;;;;;;;;;11.60;94.10;;;;;;5032055;28;19909;-72
2023/08/24 12:01:21;;;;;;;;;;;11.50;94.00;;;;;;5031880;28;20421;-72
2023/08/24 12:03:48;;;;;;;;;;;11.50;94.00;;;;;;5031239;28;20247;-72
2023/08/24 12:06:16;;;;;;;;;;;11.40;94.20;;;;;;5032045;28;19910;-71
2023/08/24 12:08:45;;;;;;;;;;;11.40;94.30;;;;;;5032144;28;20429;-71
2023/08/24 12:11:13;;;;;;;;;;;11.30;94.40;;;;;;5031756;28;19909;-72
2023/08/24 12:13:43;;;;;;;;;;;11.20;94.50;;;;;;5033419;28;19939;-71
2023/08/24 12:16:10;;;;;;;;;;;11.20;94.80;;;;;;5035582;28;20369;-71
2023/08/24 12:18:46;;;;;;;;;;;11.20;94.70;;;;;;5035847;28;19948;-71
2023/08/24 12:21:13;;;;;;;;;;;11.20;94.80;;;;;;5035508;28;19917;-72
2023/08/24 12:23:40;;;;;;;;;;;11.20;94.70;;;;;;5035471;28;20370;-71
2023/08/24 12:26:07;;;;;;;;;;;11.10;94.60;;;;;;5035995;28;19935;-71
2023/08/24 12:28:35;;;;;;;;;;;11.10;94.70;;;;;;5035242;28;20321;-71
2023/08/24 12:31:03;;;;;;;;;;;11.00;94.90;;;;;;5035630;28;20205;-72
2023/08/24 12:33:33;;;;;;;;;;;11.10;95.10;;;;;;5035338;28;19924;-71
2023/08/24 12:36:00;;;;;;;;;;;11.10;95.10;;;;;;5035188;28;20298;-72
2023/08/24 12:38:27;;;;;;;;;;;11.00;94.90;;;;;;5034752;28;19917;-72
2023/08/24 12:40:54;;;;;;;;;;;10.90;95.00;;;;;;5033750;28;19917;-71
2023/08/24 12:43:21;;;;;;;;;;;10.90;94.90;;;;;;5034374;28;19932;-72
2023/08/24 12:45:48;;;;;;;;;;;10.80;95.30;;;;;;5033515;28;19909;-72
2023/08/24 12:48:19;;;;;;;;;;;10.80;95.30;;;;;;5034159;28;20214;-72
2023/08/24 12:50:45;;;;;;;;;;;10.70;95.30;;;;;;5035408;28;19936;-72
2023/08/24 12:53:12;;;;;;;;;;;10.70;95.40;;;;;;5034948;28;20344;-72
2023/08/24 12:55:40;;;;;;;;;;;10.70;95.40;;;;;;5033694;28;19970;-71
2023/08/24 12:58:06;;;;;;;;;;;10.70;95.40;;;;;;5033839;28;19914;-72
2023/08/24 13:00:33;;;;;;;;;;;10.60;95.30;;;;;;5033518;28;20289;-72
2023/08/24 13:03:00;;;;;;;;;;;10.60;95.40;;;;;;5033710;28;19932;-72
2023/08/24 13:05:26;;;;;;;;;;;10.50;95.50;;;;;;5033623;28;19910;-72
2023/08/24 13:07:53;;;;;;;;;;;10.50;95.50;;;;;;5033654;28;19909;-72
2023/08/24 13:10:20;;;;;;;;;;;10.40;95.80;;;;;;5034894;28;20008;-72
2023/08/24 13:12:46;;;;;;;;;;;10.40;95.70;;;;;;5050795;28;19916;-72
2023/08/24 13:15:15;;;;;;;;;;;10.40;95.70;;;;;;5034668;28;19913;-72
2023/08/24 13:17:41;;;;;;;;;;;10.30;95.90;;;;;;5035054;28;19910;-72
2023/08/24 13:20:08;;;;;;;;;;;10.30;95.90;;;;;;5035150;28;19940;-72
2023/08/24 13:22:35;;;;;;;;;;;10.30;95.90;;;;;;5035039;28;19913;-72
2023/08/24 13:25:01;;;;;;;;;;;10.30;95.80;;;;;;5034029;28;20359;-72
2023/08/24 13:27:28;;;;;;;;;;;10.20;95.90;;;;;;5042253;28;20366;-72
2023/08/24 13:29:56;;;;;;;;;;;10.20;95.90;;;;;;5035076;28;20286;-72
2023/08/24 13:32:23;;;;;;;;;;;10.20;96.20;;;;;;5035069;28;19917;-72
2023/08/24 13:34:49;;;;;;;;;;;10.10;95.90;;;;;;5034063;28;19916;-72
2023/08/24 13:37:17;;;;;;;;;;;10.10;95.90;;;;;;5034728;28;19909;-71
2023/08/24 13:39:44;;;;;;;;;;;10.00;96.10;;;;;;5033599;28;20286;-71
2023/08/24 13:42:10;;;;;;;;;;;10.00;96.20;;;;;;5050095;28;20393;-72
2023/08/24 13:44:37;;;;;;;;;;;10.00;96.40;;;;;;5033790;28;19947;-72
2023/08/24 13:47:04;;;;;;;;;;;10.00;96.20;;;;;;5034678;28;19936;-72
2023/08/24 13:49:31;;;;;;;;;;;10.00;96.20;;;;;;5034569;28;19909;-71
2023/08/24 13:51:57;;;;;;;;;;;9.90;96.30;;;;;;5034259;28;19963;-71
2023/08/24 13:54:26;;;;;;;;;;;9.90;96.50;;;;;;5034154;28;19915;-71
2023/08/24 13:56:53;;;;;;;;;;;9.80;96.40;;;;;;5034591;28;19961;-70
2023/08/24 13:59:21;;;;;;;;;;;9.80;96.30;;;;;;5034396;28;19959;-71
2023/08/24 14:01:48;;;;;;;;;;;9.80;96.30;;;;;;5034107;28;20370;-71
2023/08/24 14:04:14;;;;;;;;;;;9.70;96.30;;;;;;5033741;28;20444;-70
2023/08/24 14:06:41;;;;;;;;;;;9.60;96.40;;;;;;5034308;28;19913;-70
2023/08/24 14:09:08;;;;;;;;;;;9.60;96.50;;;;;;5034163;28;19916;-70
2023/08/24 14:11:34;;;;;;;;;;;9.70;96.60;;;;;;5034279;28;19913;-71
2023/08/24 14:14:01;;;;;;;;;;;9.70;96.50;;;;;;5033881;28;19913;-71
2023/08/24 14:16:28;;;;;;;;;;;9.70;96.50;;;;;;5034056;28;19909;-72
2023/08/24 14:18:54;;;;;;;;;;;9.70;96.60;;;;;;5033883;28;19913;-71
2023/08/24 14:21:23;;;;;;;;;;;9.70;96.60;;;;;;5033783;28;19928;-72